首页
METAR-TAF:

METAR-TAF

机场 :

Monte Terminillo, 意大利

纬度: 42-28N, 经度: 012-59E, 海拔: 1874米

当前天气观测

该预报发布于42分钟前的23:55 UTC
风速11节,风向,在北转东北南转南东之间变化
温度 11°C
湿度 82%
气压 1024 hPa

METAR: LIRK 062355Z AUTO 09011KT 030V150 //// 11/08 Q1024

时间: 02:37 (00:37 UTC)


TAF: 丢失

超过4000个机场的气象观测和天气预报(METAR&TAF报告)。

可查询的气象台以黄色和红色小点在地图上表示。

将鼠标移到小点上方,可查看气象台名称。

然后点击查看天气观测和预报。

如需切换地图:点击带黑十字的绿色按钮放大地图;点击带横线的绿色按钮缩小地图;或者点击绿色箭头查看邻近地区的地图。


METAR-TAF: